Flight Track Log - Related Links

Times and Time Zones

All times are in EDT time to prevent confusion due to time zone crossing. See the CTL14 flight status page for this flight to view local times or setup timezone preferences in your user account.

Time Position Orientation Groundspeed Altitude Reporting Facility
EDT Latitude Longitude Course Direction KTS MPH feet Rate Location/Type
Wed 12:03:53 AM 42.1833 -87.7500 71° East 189 217 2,100  Level Chicago TRACON
Wed 12:04:53 AM 42.1833 -87.6833 90° East 190 219 2,100 136 Level Chicago TRACON
Wed 12:06:05 AM 42.1833 -87.6000 90° East 180 207 2,400 409 Climbing Chicago TRACON
Wed 12:07:05 AM 42.1667 -87.5500 114° Southeast 140 161 3,000 611 Climbing Chicago TRACON
Wed 12:07:53 AM 42.1500 -87.5167 124° Southeast 142 163 3,500 469 Climbing Chicago TRACON
Wed 12:08:00 AM 41.9819 -87.5719 116° Southeast  Level FlightAware Approximate
Wed 12:08:09 AM 42.1431 -87.5156 173° South 149 171 3,500  Level Chicago Center
Wed 12:09:09 AM 42.1239 -87.4714 120° Southeast 144 166 4,000 496 Climbing Chicago Center
Wed 12:10:10 AM 42.1031 -87.4253 121° Southeast 143 165 4,500 496 Climbing Chicago Center
Wed 12:11:10 AM 42.0833 -87.3786 120° Southeast 144 166 5,000 500 Climbing Chicago Center
Wed 12:12:10 AM 42.0625 -87.3333 122° Southeast 143 165 5,500 496 Climbing Chicago Center
Wed 12:13:11 AM 42.0417 -87.2850 120° Southeast 147 169 6,000 446 Climbing Chicago Center
Wed 12:14:11 AM 42.0211 -87.2358 119° Southeast 151 174 6,400 446 Climbing Chicago Center
Wed 12:15:12 AM 41.9950 -87.1775 121° Southeast 152 175 6,900 298 Climbing Chicago Center
Wed 12:16:12 AM 41.9731 -87.1258 120° Southeast 159 183 7,000 50 Climbing Chicago Center
Wed 12:17:13 AM 41.9489 -87.0703 120° Southeast 170 196 7,000  Level Chicago Center
Wed 12:18:13 AM 41.9236 -87.0147 121° Southeast 174 200 7,000  Level Chicago Center
Wed 12:19:14 AM 41.8986 -86.9581 121° Southeast 176 203 7,000  Level Chicago Center
Wed 12:20:14 AM 41.8756 -86.9025 119° Southeast 173 199 7,000  Level Chicago Center
Wed 12:21:15 AM 41.8514 -86.8475 121° Southeast 173 199 7,000  Level Chicago Center
Wed 12:22:15 AM 41.8278 -86.7933 120° Southeast 170 196 7,000  Level Chicago Center
Wed 12:23:15 AM 41.8025 -86.7389 122° Southeast 172 198 7,000  Level Chicago Center
Wed 12:24:16 AM 41.7794 -86.6864 120° Southeast 171 197 7,000 -50 Level Chicago Center
Wed 12:25:16 AM 41.7542 -86.6306 121° Southeast 173 199 6,900 -17 Descending Chicago Center
Wed 12:27:00 AM 41.7136 -86.5366 120° Southeast  Level FlightAware Approximate
Wed 12:30:18 AM 41.6292 -86.3653 120° Southeast 167 192 6,900  Level Chicago Center
Wed 12:31:19 AM 41.6042 -86.3133 123° Southeast 167 192 7,100 298 Climbing Chicago Center
Wed 12:32:19 AM 41.5808 -86.2606 121° Southeast 166 191 7,500 450 Climbing Chicago Center
Wed 12:33:19 AM 41.5589 -86.2131 122° Southeast 156 180 8,000 446 Climbing Chicago Center
Wed 12:34:00 AM 41.5583 -86.1540 119° Southeast  Level FlightAware Approximate
Wed 12:34:20 AM 41.5375 -86.1672 122° Southeast 149 171 8,400  Level Chicago Center
Wed 12:35:00 AM 41.5352 -86.0997 120° Southeast  Level FlightAware Approximate
Wed 12:35:20 AM 41.5119 -86.1125 122° Southeast 145 167 8,900  Level Chicago Center
Wed 12:36:21 AM 41.4892 -86.0647 122° Southeast 150 173 9,000 50 Climbing Chicago Center
Wed 12:37:21 AM 41.4653 -86.0119 121° Southeast 162 186 9,000  Level Chicago Center
Wed 12:38:21 AM 41.4403 -85.9594 122° Southeast 167 192 9,000  Level Chicago Center
Wed 12:39:22 AM 41.4167 -85.9083 122° Southeast 165 190 9,000  Level Chicago Center
Wed 12:40:22 AM 41.3928 -85.8553 121° Southeast 166 191 9,000  Level Chicago Center
Wed 12:41:22 AM 41.3686 -85.8033 122° Southeast 167 192 9,000  Level Chicago Center
Wed 12:42:23 AM 41.3422 -85.7528 125° Southeast 167 192 9,000  Level Chicago Center
Wed 12:43:23 AM 41.3189 -85.7008 121° Southeast 165 190 9,000  Level Chicago Center
Wed 12:44:24 AM 41.2942 -85.6486 122° Southeast 167 192 9,000 -50 Level Chicago Center
Wed 12:45:24 AM 41.2689 -85.5953 122° Southeast 170 196 8,900  Descending Chicago Center
Wed 12:46:24 AM 41.2456 -85.5433 121° Southeast 167 192 9,000  Climbing Chicago Center
Wed 12:47:25 AM 41.2217 -85.4933 122° Southeast 162 186 8,900 -50 Descending Chicago Center
Wed 12:48:25 AM 41.1944 -85.4433 126° Southeast 167 192 8,900  Level Chicago Center
Wed 12:49:25 AM 41.1728 -85.3897 118° Southeast 166 191 8,900 50 Level Chicago Center
Wed 12:50:26 AM 41.1486 -85.3406 123° Southeast 163 188 9,000 50 Climbing Chicago Center
Wed 12:51:26 AM 41.1256 -85.2906 121° Southeast 161 185 9,000  Level Chicago Center
Wed 12:52:26 AM 41.1025 -85.2375 120° Southeast 164 189 9,000  Level Chicago Center
Wed 12:53:27 AM 41.0775 -85.1881 124° Southeast 163 188 9,000  Level Chicago Center
Wed 12:54:27 AM 41.0544 -85.1356 120° Southeast 164 189 9,000 56 Level Chicago Center
Wed 12:56:00 AM 41.0300 -85.0822 126° Southeast  Level Estimated
Wed 12:57:00 AM 40.9906 -85.0081 126° Southeast 160 184 9,200  Level Indianapolis Center
Wed 12:57:27 AM 40.9811 -84.9875 121° Southeast 162 186 9,100 -136 Descending Chicago Center
Wed 12:58:28 AM 40.9594 -84.9367 119° Southeast 159 183 9,000 -50 Descending Chicago Center
Wed 12:59:28 AM 40.9344 -84.8831 122° Southeast 168 193 9,000  Level Chicago Center
Wed 01:00:28 AM 40.9075 -84.8342 126° Southeast 167 192 9,000  Level Chicago Center
Wed 01:01:28 AM 40.8739 -84.7747 127° Southeast 169 194 9,000 -50 Level Chicago Center
Wed 01:02:29 AM 40.8533 -84.7217 117° Southeast 164 189 8,900  Descending Chicago Center
Wed 01:03:29 AM 40.8264 -84.6728 126° Southeast 164 189 9,000 50 Climbing Chicago Center
Wed 01:04:29 AM 40.8039 -84.6231 121° Southeast 159 183 9,000  Level Chicago Center
Wed 01:05:29 AM 40.7783 -84.5714 123° Southeast 165 190 9,000 -50 Level Chicago Center
Wed 01:06:30 AM 40.7547 -84.5200 121° Southeast 166 191 8,900 -50 Descending Chicago Center
Wed 01:07:30 AM 40.7308 -84.4681 121° Southeast 166 191 8,900  Level Chicago Center
Wed 01:08:30 AM 40.7056 -84.4183 124° Southeast 165 190 8,900  Level Chicago Center
Wed 01:09:30 AM 40.6819 -84.3672 121° Southeast 165 190 8,900 64 Level Chicago Center
Wed 01:10:04 AM 40.6714 -84.3450 122° Southeast 161 185 9,000 63 Climbing Indianapolis Center
Wed 01:11:05 AM 40.6469 -84.2939 122° Southeast 164 189 9,000 71 Level Indianapolis Center
Wed 01:11:29 AM 40.6342 -84.2692 124° Southeast 161 185 9,100  Climbing Indianapolis Center
Wed 01:12:05 AM 40.6222 -84.2433 121° Southeast 162 186 9,000 -222 Descending Indianapolis Center
Wed 01:12:23 AM 40.6106 -84.2222 126° Southeast 163 188 8,900 -300 Descending Indianapolis Center
Wed 01:13:05 AM 40.5981 -84.1897 117° Southeast 168 193 8,700 -350 Descending Indianapolis Center
Wed 01:14:06 AM 40.5714 -84.1344 122° Southeast 176 203 8,300 -347 Descending Indianapolis Center
Wed 01:15:06 AM 40.5450 -84.0781 122° Southeast 178 205 8,000 -250 Descending Indianapolis Center
Wed 01:16:06 AM 40.5186 -84.0219 122° Southeast 178 205 7,800 -198 Descending Indianapolis Center
Wed 01:17:07 AM 40.4942 -83.9664 120° Southeast 177 204 7,600 -248 Descending Indianapolis Center
Wed 01:18:07 AM 40.4689 -83.9103 121° Southeast 176 203 7,300 -350 Descending Indianapolis Center
Wed 01:19:07 AM 40.4428 -83.8561 122° Southeast 175 201 6,900 -694 Descending Indianapolis Center
Wed 01:20:08 AM 40.4153 -83.7983 122° Southeast 182 209 5,900 -942 Descending Indianapolis Center
Wed 01:21:08 AM 40.3858 -83.7378 123° Southeast 189 217 5,000 -960 Descending Indianapolis Center
Wed 01:21:23 AM 40.3767 -83.7194 123° Southeast 193 222 4,700 -1,000 Descending Indianapolis Center
Wed 01:22:08 AM 40.3586 -83.6767 119° Southeast 191 220 4,000 -700 Descending Indianapolis Center
Wed 01:22:23 AM 40.3475 -83.6583 128° Southeast 192 221 4,000  Level Indianapolis Center
Wed 01:23:08 AM 40.3308 -83.6206 120° Southeast 189 217 4,000  Level Indianapolis Center
Wed 01:23:24 AM 40.3222 -83.6058 127° Southeast 166 191 4,000  Level Indianapolis Center
Wed 01:24:09 AM 40.3072 -83.5692 118° Southeast 175 201 4,000  Level Indianapolis Center
Wed 01:24:24 AM 40.3006 -83.5567 125° Southeast 164 189 4,000 -200 Level Indianapolis Center
Wed 01:25:09 AM 40.2847 -83.5172 118° Southeast 166 191 3,800 -295 Descending Indianapolis Center
Wed 01:25:25 AM 40.2772 -83.5047 128° Southeast 168 193 3,700 -300 Descending Indianapolis Center
Wed 01:26:09 AM 40.2583 -83.4636 121° Southeast 169 194 3,500 -197 Descending Indianapolis Center
Wed 01:26:26 AM 40.2497 -83.4494 129° Southeast 174 200 3,500 -197 Level Indianapolis Center
Wed 01:27:10 AM 40.2331 -83.4100 119° Southeast 171 197 3,300 -200 Descending Indianapolis Center
Wed 01:27:26 AM 40.2261 -83.3972 125° Southeast 169 194 3,300 -100 Level Indianapolis Center
Wed 01:28:10 AM 40.2114 -83.3636 120° Southeast 171 197 3,200 -136 Descending Indianapolis Center
Wed 01:30:00 AM 40.1764 -83.2628 127° Southeast  Level FlightAware Approximate
Wed 01:37:00 AM 40.0798 -83.0732 123° Southeast  Level Estimated
Wed 01:38:00 AM 40.0798 -83.0732 123° Southeast  Level Estimated

Login

Don't have an account? Register now (free) for customized features, flight alerts, and more!